createdAt,value
2019-05-22T00:02:16.438Z,68.01
2019-05-22T00:07:18.273Z,68.13
2019-05-22T00:12:20.220Z,68.19
2019-05-22T00:17:26.344Z,68.32
2019-05-22T00:22:32.757Z,68.34
2019-05-22T00:27:36.311Z,68.40
2019-05-22T00:32:38.767Z,68.49
2019-05-22T00:37:41.692Z,68.60
2019-05-22T00:42:44.885Z,68.61
2019-05-22T00:47:48.640Z,68.65
2019-05-22T00:53:00.133Z,68.85
2019-05-22T00:58:05.477Z,69.05
2019-05-22T01:03:09.135Z,69.16
2019-05-22T01:08:15.067Z,69.32
2019-05-22T01:13:17.523Z,69.40
2019-05-22T01:18:19.581Z,69.49
2019-05-22T01:23:23.128Z,69.59
2019-05-22T01:28:25.383Z,69.63
2019-05-22T01:33:33.062Z,69.58
2019-05-22T01:38:35.161Z,69.62
2019-05-22T01:43:37.367Z,69.71
2019-05-22T01:48:41.822Z,69.78
2019-05-22T01:53:43.454Z,69.87
2019-05-22T01:58:45.140Z,70.01
2019-05-22T02:03:47.209Z,70.21
2019-05-22T02:08:56.165Z,70.40
2019-05-22T02:14:09.407Z,70.53
2019-05-22T02:19:10.950Z,70.55
2019-05-22T02:24:12.715Z,70.61
2019-05-22T02:29:16.397Z,70.61
2019-05-22T02:34:18.095Z,70.77
2019-05-22T02:39:23.336Z,70.90
2019-05-22T02:44:26.460Z,70.98
2019-05-22T02:49:28.353Z,71.14
2019-05-22T02:54:31.977Z,71.24
2019-05-22T02:59:33.762Z,71.25
2019-05-22T03:05:08.300Z,71.39
2019-05-22T03:10:13.654Z,71.54
2019-05-22T03:15:17.335Z,71.58
2019-05-22T03:20:21.147Z,71.61
2019-05-22T03:25:24.238Z,71.69
2019-05-22T03:30:29.594Z,71.70
2019-05-22T03:35:38.677Z,71.75
2019-05-22T03:40:40.915Z,71.83
2019-05-22T03:45:42.668Z,71.93
2019-05-22T03:50:44.322Z,71.99
2019-05-22T03:55:46.982Z,72.15
2019-05-22T04:00:49.980Z,72.21
2019-05-22T04:05:51.941Z,72.37
2019-05-22T04:10:56.409Z,72.33
2019-05-22T04:16:00.073Z,72.31
2019-05-22T04:21:02.011Z,72.34
2019-05-22T04:26:04.415Z,72.42
2019-05-22T04:31:06.664Z,72.44
2019-05-22T04:36:10.282Z,72.42
2019-05-22T04:41:13.868Z,72.43
2019-05-22T04:46:16.880Z,72.44
2019-05-22T04:51:21.909Z,72.47
2019-05-22T04:56:24.597Z,72.52
2019-05-22T05:01:27.085Z,72.57
2019-05-22T05:06:30.497Z,72.57
2019-05-22T05:11:32.150Z,72.53
2019-05-22T05:16:36.403Z,72.50
2019-05-22T05:21:38.300Z,72.52
2019-05-22T05:26:40.548Z,72.53
2019-05-22T05:31:42.212Z,72.56
2019-05-22T05:36:44.126Z,72.49
2019-05-22T05:41:45.660Z,72.55
2019-05-22T05:46:48.129Z,72.56
2019-05-22T05:51:50.993Z,72.56
2019-05-22T05:56:52.930Z,72.56
2019-05-22T06:01:55.387Z,72.46
2019-05-22T06:07:17.576Z,72.56
2019-05-22T06:12:19.234Z,72.51
2019-05-22T06:18:13.593Z,72.43
2019-05-22T06:23:57.570Z,72.43
2019-05-22T06:28:59.628Z,72.33
2019-05-22T06:34:01.209Z,72.29
2019-05-22T06:39:15.530Z,72.33
2019-05-22T06:44:27.759Z,72.28
2019-05-22T06:49:38.358Z,72.28
2019-05-22T06:54:40.252Z,72.32
2019-05-22T06:59:44.185Z,72.31
2019-05-22T07:04:46.480Z,72.37
2019-05-22T07:09:49.077Z,72.42
2019-05-22T07:16:04.353Z,72.40
2019-05-22T07:21:07.436Z,72.48
2019-05-22T07:26:09.913Z,72.49
2019-05-22T07:31:11.958Z,72.58
2019-05-22T07:36:17.017Z,72.54
2019-05-22T07:41:18.054Z,72.36
2019-05-22T07:46:20.083Z,72.11
2019-05-22T07:51:22.154Z,71.51
2019-05-22T07:56:24.408Z,71.37
2019-05-22T08:01:26.198Z,71.33
2019-05-22T08:06:27.964Z,71.08
2019-05-22T08:11:29.602Z,70.70
2019-05-22T08:16:31.449Z,71.02
2019-05-22T08:21:33.304Z,70.98
2019-05-22T08:26:51.642Z,71.04
2019-05-22T08:31:38.630Z,71.15
2019-05-22T08:36:40.221Z,71.17
2019-05-22T08:41:42.008Z,70.94
2019-05-22T08:46:44.137Z,71.05
2019-05-22T08:51:46.376Z,70.96
2019-05-22T08:56:48.880Z,70.97
2019-05-22T09:01:51.640Z,70.67
2019-05-22T09:06:53.321Z,70.36
2019-05-22T09:11:55.399Z,70.73
2019-05-22T09:16:56.993Z,70.72
2019-05-22T09:21:59.041Z,70.72
2019-05-22T09:27:02.834Z,70.58
2019-05-22T09:32:05.239Z,70.37
2019-05-22T09:37:08.177Z,70.53
2019-05-22T09:42:09.869Z,70.51
2019-05-22T09:47:11.570Z,70.58
2019-05-22T09:52:13.241Z,70.70
2019-05-22T09:57:15.365Z,70.23
2019-05-22T10:02:16.914Z,69.98
2019-05-22T10:07:18.597Z,70.25
2019-05-22T10:12:20.382Z,70.13
2019-05-22T10:17:22.635Z,70.18
2019-05-22T10:22:28.962Z,70.02
2019-05-22T10:27:30.834Z,69.82
2019-05-22T10:32:32.714Z,69.61
2019-05-22T10:37:34.474Z,69.25
2019-05-22T10:42:36.165Z,69.13
2019-05-22T10:47:38.274Z,69.90
2019-05-22T10:52:39.824Z,70.26
2019-05-22T10:57:43.025Z,69.75
2019-05-22T11:02:45.702Z,68.85
2019-05-22T11:07:47.754Z,69.37
2019-05-22T11:12:49.846Z,69.82
2019-05-22T11:17:51.558Z,70.04
2019-05-22T11:22:53.472Z,69.53
2019-05-22T11:27:55.130Z,69.41
2019-05-22T11:32:57.095Z,69.85
2019-05-22T11:37:59.081Z,69.74
2019-05-22T11:43:00.975Z,69.38
2019-05-22T11:48:03.800Z,68.87
2019-05-22T11:53:05.897Z,68.18
2019-05-22T11:58:07.748Z,68.62
2019-05-22T12:03:09.622Z,68.96
2019-05-22T12:08:12.197Z,69.03
2019-05-22T12:13:13.871Z,69.12
2019-05-22T12:18:15.548Z,69.31
2019-05-22T12:23:17.235Z,69.61
2019-05-22T12:28:19.105Z,69.45
2019-05-22T12:33:21.608Z,69.77
2019-05-22T12:38:26.697Z,69.64
2019-05-22T12:43:29.365Z,69.69
2019-05-22T12:48:31.242Z,69.74
2019-05-22T12:53:33.592Z,69.46
2019-05-22T12:58:36.012Z,69.45
2019-05-22T13:03:38.122Z,69.91
2019-05-22T13:08:40.366Z,69.86
2019-05-22T13:13:42.720Z,70.01
2019-05-22T13:18:44.427Z,70.00
2019-05-22T13:23:47.736Z,70.15
2019-05-22T13:28:49.328Z,70.36
2019-05-22T13:33:52.296Z,70.25
2019-05-22T13:38:54.387Z,70.50
2019-05-22T13:43:56.710Z,70.55
2019-05-22T13:48:58.361Z,70.42
2019-05-22T13:53:59.901Z,70.15
2019-05-22T13:59:02.170Z,70.51
2019-05-22T14:04:03.875Z,70.50
2019-05-22T14:09:09.066Z,70.71
2019-05-22T14:14:11.331Z,70.87
2019-05-22T14:19:12.879Z,70.88
2019-05-22T14:24:14.531Z,70.44
2019-05-22T14:29:16.276Z,70.22
2019-05-22T14:34:17.901Z,70.84
2019-05-22T14:39:20.532Z,71.06
2019-05-22T14:44:22.184Z,71.01
2019-05-22T14:49:23.856Z,70.78
2019-05-22T14:54:25.512Z,70.92
2019-05-22T14:59:27.395Z,70.95
2019-05-22T15:04:29.542Z,71.00
2019-05-22T15:09:31.389Z,71.03
2019-05-22T15:14:33.032Z,71.10
2019-05-22T15:19:35.318Z,70.87
2019-05-22T15:24:37.443Z,70.61
2019-05-22T15:29:39.528Z,70.84
2019-05-22T15:34:41.180Z,70.85
2019-05-22T15:39:42.734Z,70.85
2019-05-22T15:44:44.904Z,70.89
2019-05-22T15:49:47.114Z,71.16
2019-05-22T15:54:49.765Z,71.14
2019-05-22T15:59:51.888Z,70.88
2019-05-22T16:04:53.643Z,70.72
2019-05-22T16:09:55.890Z,70.62
2019-05-22T16:14:59.400Z,70.39
2019-05-22T16:20:01.566Z,69.78
2019-05-22T16:25:03.908Z,69.65
2019-05-22T16:30:06.796Z,69.97
2019-05-22T16:35:09.577Z,70.15
2019-05-22T16:40:12.203Z,69.64
2019-05-22T16:45:14.262Z,69.12
2019-05-22T16:50:16.106Z,68.96
2019-05-22T16:55:19.779Z,69.19
2019-05-22T17:00:21.630Z,69.24
2019-05-22T17:05:23.806Z,68.83
2019-05-22T17:10:26.058Z,67.64
2019-05-22T17:15:28.113Z,67.63
2019-05-22T17:20:29.796Z,68.11
2019-05-22T17:25:32.317Z,68.54
2019-05-22T17:30:34.396Z,68.59
2019-05-22T17:35:36.857Z,69.22
2019-05-22T17:40:39.081Z,69.27
2019-05-22T17:45:42.097Z,69.20
2019-05-22T17:50:44.353Z,69.24
2019-05-22T17:55:46.870Z,69.36
2019-05-22T18:00:49.001Z,69.41
2019-05-22T18:05:51.262Z,69.37
2019-05-22T18:10:53.115Z,69.34
2019-05-22T18:15:54.689Z,69.18
2019-05-22T18:20:56.343Z,69.12
2019-05-22T18:25:57.918Z,69.06
2019-05-22T18:30:59.683Z,68.92
2019-05-22T18:36:01.283Z,67.59
2019-05-22T18:41:03.069Z,67.06
2019-05-22T18:46:05.144Z,66.93
2019-05-22T18:51:07.855Z,67.01
2019-05-22T18:56:10.894Z,67.56
2019-05-22T19:01:16.189Z,67.77
2019-05-22T19:06:29.389Z,67.93
2019-05-22T19:11:20.363Z,67.99
2019-05-22T19:16:22.826Z,67.95
2019-05-22T19:21:24.370Z,67.93
2019-05-22T19:26:27.032Z,67.92
2019-05-22T19:31:28.776Z,67.85
2019-05-22T19:36:30.431Z,67.80
2019-05-22T19:41:32.124Z,67.73
2019-05-22T19:46:33.779Z,67.64
2019-05-22T19:51:36.644Z,67.58
2019-05-22T19:56:38.840Z,67.52
2019-05-22T20:01:40.922Z,67.46
2019-05-22T20:06:42.783Z,67.42
2019-05-22T20:11:44.944Z,67.33
2019-05-22T20:16:46.908Z,67.22
2019-05-22T20:21:49.694Z,67.17
2019-05-22T20:26:51.356Z,67.17
2019-05-22T20:31:53.125Z,67.13
2019-05-22T20:36:55.892Z,67.16
2019-05-22T20:41:57.485Z,67.16
2019-05-22T20:46:59.490Z,67.11
2019-05-22T20:52:01.086Z,67.14
2019-05-22T20:57:04.701Z,67.09
2019-05-22T21:02:08.281Z,67.02
2019-05-22T21:07:10.671Z,66.95
2019-05-22T21:12:12.749Z,66.97
2019-05-22T21:17:15.159Z,66.95
2019-05-22T21:22:20.364Z,66.92
2019-05-22T21:27:22.028Z,66.91
2019-05-22T21:32:24.233Z,66.87
2019-05-22T21:37:25.893Z,66.87
2019-05-22T21:42:28.277Z,66.81
2019-05-22T21:47:30.067Z,66.82
2019-05-22T21:52:32.321Z,66.99
2019-05-22T21:57:35.061Z,66.96
2019-05-22T22:02:41.690Z,66.92
2019-05-22T22:07:43.449Z,67.02
2019-05-22T22:12:47.458Z,67.01
2019-05-22T22:17:51.500Z,66.99
2019-05-22T22:22:53.692Z,66.99
2019-05-22T22:27:55.362Z,67.09
2019-05-22T22:32:58.043Z,67.09
2019-05-22T22:38:00.004Z,67.12
2019-05-22T22:43:02.837Z,67.19
2019-05-22T22:48:05.559Z,67.23
2019-05-22T22:53:07.317Z,67.27
2019-05-22T22:58:17.041Z,67.30
2019-05-22T23:03:18.862Z,67.28
2019-05-22T23:08:24.116Z,67.36
2019-05-22T23:13:27.289Z,67.38
2019-05-22T23:18:51.997Z,67.39
2019-05-22T23:23:52.883Z,67.36
2019-05-22T23:28:54.875Z,67.42
2019-05-22T23:33:56.413Z,67.45
2019-05-22T23:39:00.602Z,67.44
2019-05-22T23:44:02.412Z,67.44
2019-05-22T23:49:04.040Z,67.48
2019-05-22T23:54:05.619Z,67.46
2019-05-22T23:59:07.571Z,67.48
